TimeCDT,TemperatureF,Dew PointF,Humidity,Sea Level PressureIn,VisibilityMPH,Wind Direction,Wind SpeedMPH,Gust SpeedMPH,PrecipitationIn,Events,Conditions,WindDirDegrees,DateUTC
12:15 AM,39.2,32.0,75,30.09,10.0,ESE,8.1,-,N/A,,Clear,110,2012-10-30 05:15:00
12:35 AM,39.4,31.8,74,30.09,10.0,ESE,9.2,-,N/A,,Clear,110,2012-10-30 05:35:00
12:55 AM,39.2,31.8,75,30.09,10.0,ESE,8.1,-,N/A,,Clear,120,2012-10-30 05:55:00
1:15 AM,38.7,31.5,75,30.09,10.0,SE,8.1,-,N/A,,Clear,130,2012-10-30 06:15:00
1:35 AM,37.4,31.1,78,30.08,10.0,SE,6.9,-,N/A,,Clear,130,2012-10-30 06:35:00
1:55 AM,35.6,30.6,82,30.07,10.0,SE,6.9,-,N/A,,Clear,130,2012-10-30 06:55:00
2:55 AM,35.6,30.6,82,30.07,10.0,ESE,6.9,-,N/A,,Clear,110,2012-10-30 07:55:00
3:15 AM,35.8,31.1,83,30.06,10.0,ESE,6.9,-,N/A,,Clear,120,2012-10-30 08:15:00
3:55 AM,35.2,30.6,83,30.07,10.0,ESE,5.8,-,N/A,,Clear,120,2012-10-30 08:55:00
4:15 AM,34.7,30.6,85,30.07,10.0,ESE,5.8,-,N/A,,Mostly Cloudy,120,2012-10-30 09:15:00
4:35 AM,35.6,31.5,85,30.05,10.0,ESE,5.8,-,N/A,,Scattered Clouds,120,2012-10-30 09:35:00
4:55 AM,36.7,31.8,83,30.06,10.0,ESE,5.8,-,N/A,,Clear,120,2012-10-30 09:55:00
5:15 AM,36.9,31.8,82,30.05,10.0,ESE,6.9,-,N/A,,Clear,110,2012-10-30 10:15:00
5:35 AM,37.6,31.8,80,30.05,10.0,ESE,8.1,-,N/A,,Clear,110,2012-10-30 10:35:00
5:55 AM,37.8,31.6,79,30.05,10.0,ESE,8.1,-,N/A,,Clear,110,2012-10-30 10:55:00
6:15 AM,37.2,31.1,79,30.05,10.0,ESE,6.9,-,N/A,,Clear,110,2012-10-30 11:15:00
6:35 AM,36.3,30.9,81,30.04,10.0,ESE,8.1,-,N/A,,Clear,110,2012-10-30 11:35:00
6:55 AM,35.6,31.1,84,30.04,10.0,East,5.8,-,N/A,,Clear,90,2012-10-30 11:55:00
7:15 AM,35.6,30.9,83,30.06,10.0,East,5.8,-,N/A,,Clear,90,2012-10-30 12:15:00
7:35 AM,37.0,31.6,81,30.05,10.0,East,8.1,-,N/A,,Mostly Cloudy,90,2012-10-30 12:35:00
7:55 AM,37.0,31.1,79,30.05,10.0,ESE,8.1,-,N/A,,Scattered Clouds,110,2012-10-30 12:55:00
8:35 AM,38.5,31.1,75,30.06,10.0,East,10.4,-,N/A,,Clear,100,2012-10-30 13:35:00
8:55 AM,39.2,31.1,73,30.07,10.0,East,9.2,-,N/A,,Scattered Clouds,100,2012-10-30 13:55:00
9:15 AM,39.9,31.3,71,30.07,10.0,ESE,10.4,-,N/A,,Mostly Cloudy,110,2012-10-30 14:15:00
9:35 AM,40.8,31.1,68,30.06,10.0,ESE,12.7,-,N/A,,Mostly Cloudy,110,2012-10-30 14:35:00
9:55 AM,41.9,31.3,66,30.08,10.0,East,11.5,-,N/A,,Overcast,100,2012-10-30 14:55:00
10:15 AM,42.4,30.9,64,30.08,10.0,ESE,11.5,-,N/A,,Overcast,110,2012-10-30 15:15:00
10:35 AM,42.8,30.9,63,30.07,10.0,ESE,15.0,-,N/A,,Overcast,110,2012-10-30 15:35:00
10:55 AM,43.2,30.9,62,30.08,10.0,ESE,12.7,-,N/A,,Overcast,110,2012-10-30 15:55:00
11:15 AM,44.2,30.2,58,30.09,10.0,ESE,10.4,-,N/A,,Overcast,120,2012-10-30 16:15:00
11:35 AM,44.8,30.2,57,30.09,10.0,ESE,12.7,-,N/A,,Overcast,120,2012-10-30 16:35:00
11:55 AM,45.7,30.4,55,30.07,10.0,ESE,15.0,-,N/A,,Overcast,120,2012-10-30 16:55:00
12:15 PM,45.9,29.3,52,30.08,10.0,ESE,10.4,-,N/A,,Overcast,110,2012-10-30 17:15:00
12:35 PM,46.9,29.7,51,30.08,10.0,ESE,11.5,-,N/A,,Overcast,110,2012-10-30 17:35:00
12:55 PM,47.5,28.4,48,30.07,10.0,ESE,12.7,-,N/A,,Overcast,110,2012-10-30 17:55:00
1:15 PM,48.2,28.0,46,30.07,10.0,ESE,6.9,-,N/A,,Overcast,110,2012-10-30 18:15:00
1:35 PM,49.1,28.4,45,30.06,10.0,ESE,9.2,-,N/A,,Overcast,120,2012-10-30 18:35:00
1:55 PM,50.0,28.6,44,30.06,10.0,ESE,10.4,-,N/A,,Overcast,120,2012-10-30 18:55:00
2:15 PM,50.4,29.1,44,30.05,10.0,ESE,8.1,-,N/A,,Overcast,110,2012-10-30 19:15:00
2:35 PM,51.1,29.1,43,30.06,10.0,East,5.8,-,N/A,,Overcast,90,2012-10-30 19:35:00
2:55 PM,51.6,29.5,43,30.05,10.0,East,4.6,-,N/A,,Overcast,100,2012-10-30 19:55:00
3:15 PM,52.5,29.1,41,30.04,10.0,Calm,Calm,-,N/A,,Overcast,0,2012-10-30 20:15:00
3:35 PM,54.5,28.8,37,30.04,10.0,ESE,4.6,-,N/A,,Mostly Cloudy,110,2012-10-30 20:35:00
3:55 PM,54.9,28.6,37,30.04,10.0,East,5.8,-,N/A,,Mostly Cloudy,80,2012-10-30 20:55:00
4:15 PM,54.5,28.2,36,30.02,10.0,SE,3.5,-,N/A,,Scattered Clouds,140,2012-10-30 21:15:00
4:35 PM,54.0,28.0,37,30.04,10.0,Calm,Calm,-,N/A,,Mostly Cloudy,0,2012-10-30 21:35:00
4:55 PM,53.6,28.9,39,30.04,10.0,ENE,4.6,-,N/A,,Overcast,70,2012-10-30 21:55:00
5:15 PM,54.0,28.6,38,30.04,10.0,East,5.8,-,N/A,,Scattered Clouds,90,2012-10-30 22:15:00
5:35 PM,53.1,28.4,39,30.04,10.0,East,4.6,-,N/A,,Clear,90,2012-10-30 22:35:00
5:55 PM,50.9,30.2,45,30.03,10.0,East,4.6,-,N/A,,Clear,100,2012-10-30 22:55:00
6:15 PM,48.2,30.2,50,30.03,10.0,East,5.8,-,N/A,,Clear,100,2012-10-30 23:15:00
6:35 PM,47.1,29.8,51,30.04,10.0,East,4.6,-,N/A,,Clear,90,2012-10-30 23:35:00
6:55 PM,45.1,29.5,54,30.04,10.0,ENE,3.5,-,N/A,,Clear,70,2012-10-30 23:55:00
7:15 PM,44.1,29.3,56,30.04,10.0,ENE,4.6,-,N/A,,Clear,60,2012-10-31 00:15:00
7:35 PM,40.5,29.3,64,30.05,10.0,North,3.5,-,N/A,,Clear,360,2012-10-31 00:35:00
7:55 PM,41.4,28.9,61,30.05,10.0,Calm,Calm,-,N/A,,Clear,0,2012-10-31 00:55:00
8:15 PM,41.9,28.8,60,30.05,10.0,ENE,3.5,-,N/A,,Clear,60,2012-10-31 01:15:00
8:35 PM,38.5,28.2,67,30.05,10.0,Calm,Calm,-,N/A,,Clear,0,2012-10-31 01:35:00
8:55 PM,39.6,28.2,64,30.04,10.0,Calm,Calm,-,N/A,,Clear,0,2012-10-31 01:55:00
9:15 PM,40.3,28.2,62,30.04,10.0,Calm,Calm,-,N/A,,Clear,0,2012-10-31 02:15:00
9:35 PM,34.9,28.0,76,30.04,10.0,NNW,3.5,-,N/A,,Clear,330,2012-10-31 02:35:00
9:55 PM,35.8,28.6,75,30.05,10.0,NNW,3.5,-,N/A,,Clear,340,2012-10-31 02:55:00
10:15 PM,36.5,28.4,72,30.04,10.0,Calm,Calm,-,N/A,,Clear,0,2012-10-31 03:15:00
10:35 PM,35.8,28.2,74,30.05,10.0,NNW,3.5,-,N/A,,Clear,330,2012-10-31 03:35:00
10:55 PM,36.9,27.9,70,30.04,10.0,NW,3.5,-,N/A,,Clear,320,2012-10-31 03:55:00
11:15 PM,34.5,27.9,77,30.05,10.0,Calm,Calm,-,N/A,,Clear,0,2012-10-31 04:15:00
11:35 PM,34.5,28.2,78,30.05,10.0,Calm,Calm,-,N/A,,Clear,0,2012-10-31 04:35:00
11:55 PM,35.1,27.9,75,30.04,10.0,Calm,Calm,-,N/A,,Clear,0,2012-10-31 04:55:00